Time;durP1;ratioP1;P1;durP2;ratioP2;P2;SDS_P1;SDS_P2;PMS_P1;PMS_P2;Temp;Humidity;BMP_temperature;BMP_pressure;BME280_temperature;BME280_humidity;BME280_pressure;Samples;Min_cycle;Max_cycle;Signal;HPM_P1;HPM_P2
2022/09/15 00:00:24;;;;;;;24.75;15.15;;;;;;;28.76;74.38;97907.69;5007422;28;20045;-68
2022/09/15 00:02:59;;;;;;;21.90;15.88;;;;;;;28.77;73.99;97908.47;5006844;28;20138;-68
2022/09/15 00:05:48;;;;;;;23.13;14.32;;;;;;;28.62;73.48;97908.06;5008025;28;20049;-69
2022/09/15 00:08:31;;;;;;;23.17;13.82;;;;;;;28.65;73.87;97903.81;5007483;28;20050;-68
2022/09/15 00:11:26;;;;;;;19.42;14.55;;;;;;;28.78;73.64;97907.34;5007975;28;20053;-68
2022/09/15 00:14:11;;;;;;;21.55;14.55;;;;;;;28.69;74.12;97916.56;5005390;28;20482;-70
2022/09/15 00:17:03;;;;;;;21.95;13.43;;;;;;;28.76;73.05;97910.44;4992852;28;20045;-70
2022/09/15 00:19:45;;;;;;;26.90;13.73;;;;;;;28.53;73.41;97904.69;5010288;28;20045;-69
2022/09/15 00:22:40;;;;;;;19.52;13.18;;;;;;;28.56;74.02;97906.75;5027192;28;20148;-69
2022/09/15 00:25:16;;;;;;;17.77;13.20;;;;;;;28.66;74.11;97909.00;5026882;28;20129;-69
2022/09/15 00:28:12;;;;;;;18.50;12.80;;;;;;;28.73;74.36;97905.63;5021450;28;20042;-69
2022/09/15 00:30:53;;;;;;;20.88;12.65;;;;;;;28.66;73.05;97908.19;4990455;28;20069;-68
2022/09/15 00:33:49;;;;;;;19.25;12.68;;;;;;;28.56;73.29;97903.97;5005137;28;20046;-70
2022/09/15 00:36:38;;;;;;;17.35;12.90;;;;;;;28.46;72.41;97904.47;5006401;28;20112;-69
2022/09/15 00:39:27;;;;;;;17.40;12.60;;;;;;;28.49;74.05;97910.09;5004485;28;20068;-69
2022/09/15 00:42:11;;;;;;;19.08;12.77;;;;;;;28.34;73.21;97905.34;5004629;28;20054;-69
2022/09/15 00:45:03;;;;;;;21.55;12.48;;;;;;;28.59;73.41;97914.31;4990257;28;20143;-69
2022/09/15 00:47:46;;;;;;;16.67;12.13;;;;;;;28.56;73.87;97915.03;5007035;28;20038;-69
2022/09/15 00:50:46;;;;;;;21.20;12.98;;;;;;;28.60;74.17;97915.91;5006578;28;20048;-68
2022/09/15 00:53:24;;;;;;;16.92;12.60;;;;;;;28.59;74.13;97919.06;4987232;28;20059;-69
2022/09/15 00:56:23;;;;;;;18.90;13.30;;;;;;;28.42;73.82;97922.88;4986912;28;20791;-68
2022/09/15 00:59:04;;;;;;;22.95;14.40;;;;;;;28.63;74.25;97920.75;4987220;28;20077;-70
2022/09/15 01:02:15;;;;;;;17.27;13.40;;;;;;;28.65;74.92;97925.91;4990473;28;20386;-68
2022/09/15 01:04:55;;;;;;;21.95;13.55;;;;;;;28.59;74.23;97930.88;4987230;28;20054;-68
2022/09/15 01:08:01;;;;;;;21.27;13.85;;;;;;;28.68;73.90;97930.72;4986123;28;20100;-68
2022/09/15 01:10:50;;;;;;;23.30;14.05;;;;;;;28.64;73.17;97944.44;5005873;28;20140;-68
2022/09/15 01:13:33;;;;;;;21.90;12.95;;;;;;;28.75;73.88;97928.16;4974991;28;20077;-69
2022/09/15 01:16:51;;;;;;;20.48;13.57;;;;;;;28.57;73.25;97930.44;5002496;28;20049;-69
2022/09/15 01:20:00;;;;;;;21.58;15.10;;;;;;;28.69;74.00;97938.66;4987829;28;20493;-69
2022/09/15 01:23:09;;;;;;;20.25;13.70;;;;;;;28.72;73.95;97933.56;4976721;28;20136;-69
2022/09/15 01:26:04;;;;;;;18.88;13.80;;;;;;;28.75;72.95;97938.41;4987051;28;20042;-69
2022/09/15 01:29:15;;;;;;;21.67;13.55;;;;;;;28.80;73.49;97940.91;4986337;28;20433;-69
2022/09/15 01:35:42;;;;;;;19.13;14.13;;;;;;;28.53;73.28;97946.09;5005028;28;20054;-70
2022/09/15 01:39:00;;;;;;;19.02;13.52;;;;;;;28.93;73.68;97939.69;5006410;28;20045;-69
2022/09/15 01:42:12;;;;;;;20.73;13.77;;;;;;;29.06;72.81;97943.16;5006014;28;20782;-68
2022/09/15 01:45:18;;;;;;;20.70;13.57;;;;;;;28.97;72.74;97951.63;5005832;28;20135;-69
2022/09/15 01:48:15;;;;;;;22.48;14.63;;;;;;;29.01;71.88;97947.00;4988828;28;20109;-69
2022/09/15 01:50:57;;;;;;;20.92;14.65;;;;;;;29.20;72.85;97946.31;5003498;28;20756;-69
2022/09/15 01:53:55;;;;;;;21.10;14.38;;;;;;;29.02;72.53;97945.81;5006059;28;20053;-70
2022/09/15 01:56:32;;;;;;;26.45;14.98;;;;;;;29.00;72.02;97950.09;5006468;28;20053;-69
2022/09/15 01:59:23;;;;;;;25.02;14.20;;;;;;;29.14;72.77;97960.75;5006252;28;20053;-69
2022/09/15 02:02:53;;;;;;;21.63;14.40;;;;;;;29.19;71.73;97957.72;4991133;28;20058;-70
2022/09/15 02:05:50;;;;;;;22.58;14.98;;;;;;;29.33;71.46;97963.63;4907503;29;20108;-69
2022/09/15 02:08:41;;;;;;;25.45;15.57;;;;;;;29.42;70.57;97967.00;5005962;28;20046;-69
2022/09/15 02:11:31;;;;;;;23.60;14.25;;;;;;;29.51;71.35;97971.56;5005355;28;20058;-69
2022/09/15 02:14:21;;;;;;;31.27;15.73;;;;;;;29.57;71.47;97965.38;5001616;28;20064;-69
2022/09/15 02:17:21;;;;;;;38.88;17.42;;;;;;;29.73;70.76;97970.13;4989524;28;20082;-70
2022/09/15 02:20:25;;;;;;;39.35;17.17;;;;;;;29.91;71.68;97971.34;5007175;28;20251;-67
2022/09/15 02:23:20;;;;;;;25.45;15.65;;;;;;;29.95;70.67;97969.44;5007735;28;20053;-70
2022/09/15 02:26:13;;;;;;;36.38;17.85;;;;;;;29.82;70.41;97977.06;5008666;28;20042;-69
2022/09/15 02:29:07;;;;;;;25.27;17.98;;;;;;;29.53;70.89;97974.75;5009079;28;20046;-70
2022/09/15 02:32:01;;;;;;;25.48;16.80;;;;;;;29.87;70.08;97976.00;4993348;28;20046;-69
2022/09/15 02:34:50;;;;;;;26.65;15.88;;;;;;;30.07;70.29;97985.13;5006576;28;20054;-70
2022/09/15 02:37:42;;;;;;;27.95;16.33;;;;;;;30.12;70.24;97984.06;5009248;28;20057;-70
2022/09/15 02:40:32;;;;;;;26.48;16.48;;;;;;;30.44;70.70;97979.22;5007688;28;20121;-70
2022/09/15 02:43:23;;;;;;;24.77;16.95;;;;;;;30.37;70.32;97974.34;4992828;28;21003;-70
2022/09/15 02:46:05;;;;;;;25.00;16.92;;;;;;;30.48;69.86;97982.06;5006383;28;20112;-70
2022/09/15 02:48:55;;;;;;;24.70;16.10;;;;;;;30.38;69.59;97975.13;5006516;28;20500;-70
2022/09/15 02:51:38;;;;;;;32.95;16.83;;;;;;;30.50;68.65;97977.78;5006180;28;20112;-70
2022/09/15 02:54:28;;;;;;;36.83;17.88;;;;;;;30.67;67.61;97981.25;5005550;28;20073;-69
2022/09/15 02:57:12;;;;;;;25.38;16.83;;;;;;;30.83;66.83;97985.53;5006558;28;20058;-69
2022/09/15 03:00:16;;;;;;;29.02;16.00;;;;;;;30.53;69.14;97979.78;5007578;28;20065;-69
2022/09/15 03:02:58;;;;;;;54.80;18.35;;;;;;;30.86;68.81;97978.47;5006647;28;20077;-69
2022/09/15 03:05:47;;;;;;;28.60;16.75;;;;;;;30.55;68.54;97977.47;5003387;28;20127;-69
2022/09/15 03:08:30;;;;;;;28.75;17.60;;;;;;;30.69;68.40;97987.22;5004534;28;20111;-70
2022/09/15 03:11:21;;;;;;;35.40;17.88;;;;;;;31.10;67.20;97993.19;5006350;28;20052;-69
2022/09/15 03:14:11;;;;;;;27.65;17.83;;;;;;;31.13;67.01;97992.47;4989866;28;20049;-70
2022/09/15 03:17:01;;;;;;;23.13;16.60;;;;;;;31.44;67.13;97987.84;5005057;28;20066;-69
2022/09/15 03:19:50;;;;;;;32.55;18.70;;;;;;;31.28;65.86;97986.00;5006945;28;20413;-69
2022/09/15 03:22:32;;;;;;;30.52;18.33;;;;;;;31.06;65.46;97989.56;5005228;28;20132;-69
2022/09/15 03:25:21;;;;;;;25.13;19.15;;;;;;;31.02;67.19;97984.72;4988445;28;20057;-70
2022/09/15 03:28:04;;;;;;;35.13;19.70;;;;;;;31.14;66.95;97996.81;4971829;28;20050;-67
2022/09/15 03:30:54;;;;;;;34.83;20.02;;;;;;;30.88;65.68;97992.75;4996351;28;20045;-69
2022/09/15 03:33:43;;;;;;;31.13;19.05;;;;;;;31.34;65.24;97992.81;5000714;28;20133;-68
2022/09/15 03:36:32;;;;;;;31.00;20.38;;;;;;;31.67;64.51;97991.41;5004985;28;20096;-69
2022/09/15 03:39:21;;;;;;;31.67;19.60;;;;;;;31.72;64.28;97991.09;5011846;28;20108;-69
2022/09/15 03:42:10;;;;;;;32.75;20.67;;;;;;;31.76;64.80;97991.16;4993585;28;20062;-70
2022/09/15 03:44:53;;;;;;;32.92;21.00;;;;;;;32.01;64.68;97988.75;4987019;28;20453;-70
2022/09/15 03:47:48;;;;;;;42.95;22.58;;;;;;;31.56;63.66;97994.00;4987002;28;20498;-70
2022/09/15 03:50:45;;;;;;;39.50;21.65;;;;;;;31.92;63.75;97991.00;4986172;28;20058;-67
2022/09/15 03:53:36;;;;;;;41.45;21.23;;;;;;;32.25;62.17;97995.03;4986459;28;20050;-68
2022/09/15 03:56:37;;;;;;;35.25;21.15;;;;;;;31.93;62.36;97989.81;4967349;28;20043;-68
2022/09/15 03:59:33;;;;;;;34.80;21.02;;;;;;;32.27;63.27;98001.03;4966819;28;20157;-68
2022/09/15 04:02:08;;;;;;;26.80;18.58;;;;;;;32.48;61.60;97995.75;5002809;28;20062;-68
2022/09/15 04:05:05;;;;;;;27.85;17.85;;;;;;;32.41;60.84;97986.53;5007290;28;20041;-68
2022/09/15 04:07:41;;;;;;;24.25;17.98;;;;;;;32.42;60.58;97986.16;4990818;28;20037;-67
2022/09/15 04:10:30;;;;;;;24.08;17.50;;;;;;;32.44;60.50;97994.91;4995140;28;20050;-68
2022/09/15 04:13:20;;;;;;;26.05;16.58;;;;;;;32.70;60.60;97988.50;5006559;28;20120;-68
2022/09/15 04:16:11;;;;;;;32.65;17.42;;;;;;;32.88;60.28;97988.69;4988051;28;20074;-67
2022/09/15 04:19:03;;;;;;;24.90;16.20;;;;;;;33.01;60.67;97994.00;4991972;28;20045;-68
2022/09/15 04:21:46;;;;;;;30.52;15.98;;;;;;;33.35;59.41;97992.78;5002277;28;20054;-68
2022/09/15 04:24:36;;;;;;;28.05;16.08;;;;;;;33.44;58.80;97989.69;5002712;28;20104;-67
2022/09/15 04:27:25;;;;;;;29.92;17.25;;;;;;;33.41;59.17;97995.22;5006313;28;20754;-68
2022/09/15 04:30:13;;;;;;;30.42;17.33;;;;;;;33.66;58.65;97990.66;4974706;28;20061;-68
2022/09/15 04:33:02;;;;;;;28.95;16.30;;;;;;;33.96;57.12;97995.25;4968074;28;20411;-68
2022/09/15 04:35:44;;;;;;;24.05;16.98;;;;;;;33.76;57.85;97982.78;4967635;28;20035;-68
2022/09/15 04:38:34;;;;;;;25.38;16.50;;;;;;;34.10;56.47;97986.97;4981147;28;20109;-68
2022/09/15 04:41:28;;;;;;;22.83;17.27;;;;;;;34.41;56.65;97982.00;5022658;28;20131;-68
2022/09/15 04:44:24;;;;;;;23.23;16.55;;;;;;;34.69;56.82;97988.91;5024309;28;20429;-68
2022/09/15 04:47:19;;;;;;;35.95;18.05;;;;;;;34.90;56.12;97988.97;4999338;28;20050;-69
2022/09/15 04:49:55;;;;;;;27.60;17.40;;;;;;;34.88;54.72;97977.41;5005416;28;20165;-68
2022/09/15 04:52:50;;;;;;;37.30;19.27;;;;;;;35.00;55.52;97978.22;5006086;28;20057;-68
2022/09/15 04:55:26;;;;;;;25.17;16.88;;;;;;;35.24;55.21;97980.28;5006387;28;20068;-68
2022/09/15 04:58:16;;;;;;;31.42;17.75;;;;;;;35.52;56.05;97975.13;5005957;28;20046;-66
2022/09/15 05:00:59;;;;;;;24.90;16.50;;;;;;;35.66;53.99;97978.69;5005436;28;20042;-67
2022/09/15 05:03:55;;;;;;;26.23;16.25;;;;;;;35.96;53.15;97976.69;4995987;28;20425;-67
2022/09/15 05:06:34;;;;;;;23.48;17.65;;;;;;;35.92;52.53;97973.13;4671434;28;10000009;-67
2022/09/15 05:09:24;;;;;;;37.40;18.70;;;;;;;35.64;52.73;97977.53;4968487;28;20537;-68
2022/09/15 05:12:09;;;;;;;28.88;17.75;;;;;;;35.14;52.93;97975.47;4997841;28;20917;-69
2022/09/15 05:14:59;;;;;;;37.22;18.75;;;;;;;35.15;53.80;97977.06;4998892;28;20042;-68
2022/09/15 05:17:48;;;;;;;30.98;18.63;;;;;;;35.41;53.28;97966.75;5000295;28;20049;-68
2022/09/15 05:20:31;;;;;;;33.78;18.45;;;;;;;35.41;53.82;97967.56;5002605;28;20041;-71
2022/09/15 05:23:21;;;;;;;28.33;18.30;;;;;;;35.10;54.48;97963.50;4992110;28;20050;-69
2022/09/15 05:26:08;;;;;;;22.02;16.65;;;;;;;36.01;53.66;97959.53;5006526;28;20049;-69
2022/09/15 05:28:57;;;;;;;30.45;18.13;;;;;;;36.27;51.88;97961.09;5005577;28;20057;-69
2022/09/15 05:31:39;;;;;;;30.90;17.13;;;;;;;36.22;51.94;97958.69;5002884;28;20145;-69
2022/09/15 05:34:30;;;;;;;27.35;19.08;;;;;;;35.81;55.10;97956.38;5002060;28;20053;-70
2022/09/15 05:37:20;;;;;;;28.92;18.17;;;;;;;36.60;52.66;97959.72;5005140;28;20738;-70
2022/09/15 05:40:16;;;;;;;36.20;18.95;;;;;;;36.43;50.47;97955.81;5003084;28;20057;-73
2022/09/15 05:43:12;;;;;;;28.85;17.80;;;;;;;36.68;53.77;97960.53;4998001;28;20050;-70
2022/09/15 05:46:12;;;;;;;36.92;20.35;;;;;;;36.99;51.84;97952.34;4996917;28;20056;-70
2022/09/15 05:48:48;;;;;;;25.27;18.17;;;;;;;36.88;51.05;97951.63;5003819;28;20046;-68
2022/09/15 05:51:38;;;;;;;32.80;18.85;;;;;;;37.01;50.51;97952.72;5001538;28;20084;-72
2022/09/15 05:54:22;;;;;;;36.53;21.67;;;;;;;36.96;49.84;97955.97;4996620;28;20568;-72
2022/09/15 05:57:12;;;;;;;42.10;23.92;;;;;;;36.85;49.83;97947.66;5001486;28;20065;-70
2022/09/15 06:00:05;;;;;;;31.10;24.08;;;;;;;36.25;52.33;97943.94;5002889;28;20046;-74
2022/09/15 06:02:47;;;;;;;36.17;24.15;;;;;;;35.91;52.82;97936.03;5000239;28;20050;-73
2022/09/15 06:05:37;;;;;;;37.15;25.20;;;;;;;35.53;54.80;97932.88;5000309;28;20061;-70
2022/09/15 06:08:20;;;;;;;38.20;25.08;;;;;;;35.26;55.21;97932.47;5001562;28;20549;-67
2022/09/15 06:11:17;;;;;;;39.92;25.75;;;;;;;35.32;55.73;97930.88;5003839;28;20054;-69
2022/09/15 06:14:05;;;;;;;29.00;22.52;;;;;;;35.67;56.70;97923.66;5005536;28;20553;-71
2022/09/15 06:16:54;;;;;;;40.45;25.75;;;;;;;36.00;53.36;97925.22;5005057;28;20076;-67
2022/09/15 06:19:36;;;;;;;;;;;;;;;36.22;51.80;97914.00;5002162;28;20053;-71
2022/09/15 06:22:27;;;;;;;38.95;23.90;;;;;;;35.98;52.99;97907.25;5001758;28;19940;-70
2022/09/15 06:25:12;;;;;;;45.35;25.55;;;;;;;36.15;52.00;97902.81;5000539;28;20161;-68
2022/09/15 06:28:03;;;;;;;45.70;24.95;;;;;;;36.25;52.01;97907.63;5002838;28;20044;-68
2022/09/15 06:30:48;;;;;;;34.63;24.92;;;;;;;35.79;52.47;97900.97;5002851;28;20050;-68
2022/09/15 06:33:39;;;;;;;37.30;24.50;;;;;;;35.83;54.66;97892.56;4998041;28;20137;-68
2022/09/15 06:36:23;;;;;;;34.35;24.42;;;;;;;35.14;53.34;97893.78;5002854;28;20046;-68
2022/09/15 06:39:14;;;;;;;32.55;22.77;;;;;;;35.50;55.10;97891.78;5001616;28;20057;-67
2022/09/15 06:42:03;;;;;;;45.22;25.05;;;;;;;35.42;54.37;97887.44;4986367;28;20488;-67
2022/09/15 06:45:00;;;;;;;36.33;24.27;;;;;;;35.22;54.16;97879.47;5000092;28;20129;-68
2022/09/15 06:47:35;;;;;;;38.03;24.73;;;;;;;35.18;52.61;97880.66;4999367;28;20081;-68
2022/09/15 06:50:33;;;;;;;31.38;24.05;;;;;;;35.28;54.92;97868.72;5001369;28;20056;-68
2022/09/15 06:53:08;;;;;;;41.90;25.75;;;;;;;35.07;55.78;97869.50;5001351;28;20050;-67
2022/09/15 06:56:16;;;;;;;38.58;25.45;;;;;;;34.77;54.66;97867.88;5000447;28;20108;-69
2022/09/15 06:59:06;;;;;;;38.60;23.80;;;;;;;34.88;58.60;97862.31;5001430;28;20132;-69
2022/09/15 07:01:55;;;;;;;39.63;25.38;;;;;;;34.61;54.91;97864.66;5000416;28;20046;-69
2022/09/15 07:04:45;;;;;;;35.35;25.55;;;;;;;34.89;55.48;97859.16;5001394;28;20050;-68
2022/09/15 07:07:34;;;;;;;38.60;24.85;;;;;;;34.95;57.63;97855.94;4998732;28;20066;-68
2022/09/15 07:10:23;;;;;;;31.58;23.77;;;;;;;35.04;58.39;97853.56;5002870;28;20069;-69
2022/09/15 07:13:06;;;;;;;51.00;26.30;;;;;;;35.18;53.88;97853.59;4659800;28;10000565;-68
2022/09/15 07:16:03;;;;;;;42.00;24.90;;;;;;;35.65;57.20;97842.34;5003545;28;20065;-69
2022/09/15 07:18:48;;;;;;;43.95;24.50;;;;;;;35.53;50.63;97834.41;4993054;28;20775;-70
2022/09/15 07:21:40;;;;;;;39.58;26.80;;;;;;;35.64;53.85;97827.59;5006070;28;20042;-67
2022/09/15 07:24:24;;;;;;;37.25;26.77;;;;;;;35.50;52.82;97830.41;5007654;28;20133;-68
2022/09/15 07:27:13;;;;;;;34.13;23.85;;;;;;;35.53;53.43;97823.25;5006459;28;20103;-69
2022/09/15 07:29:56;;;;;;;34.35;23.73;;;;;;;35.74;53.89;97816.84;5008987;28;20046;-67
2022/09/15 07:32:46;;;;;;;35.38;24.58;;;;;;;35.61;52.00;97820.00;5008523;28;20572;-69
2022/09/15 07:35:28;;;;;;;42.95;25.77;;;;;;;35.90;50.11;97814.34;5007727;28;20120;-67
2022/09/15 07:38:18;;;;;;;35.05;24.27;;;;;;;35.93;49.74;97813.56;5007412;28;20050;-67
2022/09/15 07:41:19;;;;;;;39.67;23.67;;;;;;;36.08;52.40;97808.69;5007823;28;20049;-65
2022/09/15 07:44:08;;;;;;;35.28;23.55;;;;;;;36.07;50.71;97799.50;5007132;28;20045;-68
2022/09/15 07:46:58;;;;;;;33.38;24.30;;;;;;;36.38;52.82;97788.59;5005281;28;20069;-68
2022/09/15 07:49:53;;;;;;;33.33;22.05;;;;;;;36.39;50.85;97784.59;5006009;28;20053;-68
2022/09/15 07:52:36;;;;;;;31.08;21.05;;;;;;;36.30;48.77;97791.84;5004775;28;20469;-69
2022/09/15 07:55:25;;;;;;;33.80;22.33;;;;;;;36.27;48.77;97773.91;5003086;28;20490;-69
2022/09/15 07:58:08;;;;;;;28.95;20.27;;;;;;;36.63;49.37;97780.03;5004949;28;20392;-69
2022/09/15 08:00:57;;;;;;;32.28;21.58;;;;;;;36.76;48.98;97769.16;5005280;28;20045;-69
2022/09/15 08:03:41;;;;;;;29.85;20.23;;;;;;;36.72;47.64;97762.00;5006275;28;20050;-69
2022/09/15 08:06:33;;;;;;;34.30;20.98;;;;;;;36.70;47.65;97748.44;5004873;28;20583;-69
2022/09/15 08:09:22;;;;;;;32.00;21.30;;;;;;;36.95;49.40;97745.41;4990287;28;20060;-69
2022/09/15 08:12:05;;;;;;;30.23;21.35;;;;;;;36.84;48.07;97741.91;5004651;28;20053;-68
2022/09/15 08:14:54;;;;;;;27.92;21.17;;;;;;;36.42;51.16;97741.88;5005194;28;20472;-69
2022/09/15 08:17:43;;;;;;;31.05;21.42;;;;;;;36.09;49.69;97731.28;4988396;28;20042;-68
2022/09/15 08:20:25;;;;;;;29.75;19.90;;;;;;;36.23;50.78;97734.00;5007176;28;20056;-68
2022/09/15 08:23:17;;;;;;;34.80;23.08;;;;;;;36.04;47.81;97727.72;4976192;28;20052;-68
2022/09/15 08:25:59;;;;;;;32.13;21.42;;;;;;;36.21;50.74;97723.25;5008063;28;20074;-68
2022/09/15 08:28:55;;;;;;;35.17;21.77;;;;;;;36.21;49.93;97725.25;5004931;28;20037;-69
2022/09/15 08:31:38;;;;;;;29.40;20.88;;;;;;;36.22;48.42;97724.03;4990816;28;20478;-68
2022/09/15 08:34:30;;;;;;;27.42;20.65;;;;;;;36.03;51.52;97723.34;4984640;28;20061;-69
2022/09/15 08:37:16;;;;;;;30.73;20.98;;;;;;;36.03;52.14;97714.94;5007192;28;20060;-69
2022/09/15 08:40:05;;;;;;;26.83;20.35;;;;;;;36.09;51.26;97697.78;5007615;28;20042;-69
2022/09/15 08:42:49;;;;;;;;;;;;;;;35.87;53.67;97692.34;5007435;28;20046;-69
2022/09/15 08:45:57;;;;;;;30.10;21.10;;;;;;;35.80;50.88;97684.78;4997011;28;20387;-69
2022/09/15 08:49:01;;;;;;;35.55;23.17;;;;;;;35.76;50.37;97672.06;5005236;28;20116;-69
2022/09/15 08:51:52;;;;;;;35.00;22.83;;;;;;;35.67;49.33;97664.91;5007068;28;20069;-69
2022/09/15 08:54:42;;;;;;;39.47;22.90;;;;;;;36.17;51.22;97666.63;5006060;28;20567;-69
2022/09/15 08:57:25;;;;;;;35.78;23.45;;;;;;;36.04;50.78;97669.09;5004177;28;20049;-70
2022/09/15 09:00:22;;;;;;;32.60;21.67;;;;;;;36.18;49.06;97661.84;5006086;28;20500;-69
2022/09/15 09:03:18;;;;;;;35.70;24.00;;;;;;;36.13;50.50;97657.44;4995501;28;20062;-69
2022/09/15 09:06:45;;;;;;;32.15;22.05;;;;;;;35.63;49.33;97655.75;5006112;28;20053;-69
2022/09/15 09:10:08;;;;;;;29.50;22.08;;;;;;;36.02;50.71;97651.94;4978296;28;20120;-69
2022/09/15 09:12:55;;;;;;;39.22;22.70;;;;;;;35.92;51.88;97647.22;5004628;28;20073;-69
2022/09/15 09:16:26;;;;;;;40.92;22.42;;;;;;;35.48;53.97;97648.66;5006526;28;20050;-69
2022/09/15 09:19:51;;;;;;;32.85;22.08;;;;;;;35.46;52.50;97639.91;5003916;28;20061;-69
2022/09/15 09:22:43;;;;;;;36.85;23.08;;;;;;;34.98;52.34;97626.53;4956320;28;20038;-70
2022/09/15 09:25:34;;;;;;;44.90;23.42;;;;;;;34.74;56.11;97629.00;4986348;28;20145;-69
2022/09/15 09:28:34;;;;;;;33.78;22.33;;;;;;;34.85;56.62;97629.78;4969253;28;20050;-67
2022/09/15 09:31:28;;;;;;;33.28;22.02;;;;;;;34.86;54.48;97627.78;4971851;28;20042;-70
2022/09/15 09:34:12;;;;;;;32.42;21.88;;;;;;;34.57;56.49;97625.03;4986161;28;20099;-67
2022/09/15 09:37:05;;;;;;;39.00;20.98;;;;;;;34.33;55.36;97618.28;4987663;28;20835;-66
2022/09/15 09:39:54;;;;;;;35.20;22.25;;;;;;;34.27;55.80;97605.97;5005934;28;20072;-67
2022/09/15 09:42:39;;;;;;;35.22;21.60;;;;;;;34.22;56.63;97604.34;5006155;28;20056;-68
2022/09/15 09:45:28;;;;;;;36.90;22.65;;;;;;;33.92;55.88;97607.53;5005348;28;20074;-65
2022/09/15 09:48:37;;;;;;;32.50;20.92;;;;;;;34.21;55.92;97607.56;4985726;28;20426;-65
2022/09/15 09:51:42;;;;;;;37.78;21.13;;;;;;;34.09;57.62;97603.97;4971763;28;20379;-67
2022/09/15 09:54:32;;;;;;;31.38;19.65;;;;;;;34.00;58.12;97614.69;4986141;28;20070;-70
2022/09/15 09:57:19;;;;;;;30.23;18.33;;;;;;;33.80;56.78;97607.91;4979837;28;20091;-69
2022/09/15 10:00:39;;;;;;;32.22;20.58;;;;;;;34.04;57.52;97601.56;4637971;28;9999771;-70
2022/09/15 10:03:30;;;;;;;28.17;19.63;;;;;;;33.96;55.38;97599.19;4982079;28;20042;-70
2022/09/15 10:06:21;;;;;;;29.45;19.40;;;;;;;34.08;58.08;97604.34;4981312;28;20058;-70
2022/09/15 10:09:07;;;;;;;28.75;19.45;;;;;;;33.97;58.43;97593.19;4966745;28;20048;-70
2022/09/15 10:15:03;;;;;;;26.10;20.25;;;;;;;33.94;57.95;97588.44;4979904;28;20105;-70
2022/09/15 10:17:54;;;;;;;34.45;21.42;;;;;;;33.82;58.55;97570.16;4981438;28;20058;-70
2022/09/15 10:20:57;;;;;;;37.17;21.05;;;;;;;33.95;56.59;97570.53;4969999;28;20576;-70
2022/09/15 10:23:42;;;;;;;53.85;22.13;;;;;;;33.89;60.98;97566.56;4982499;28;20038;-71
2022/09/15 10:26:39;;;;;;;32.58;20.58;;;;;;;33.87;60.07;97560.59;4981578;28;20061;-70
2022/09/15 10:29:23;;;;;;;32.90;21.40;;;;;;;33.77;59.06;97559.41;4964729;28;20043;-69
2022/09/15 10:32:36;;;;;;;33.45;21.15;;;;;;;33.90;60.75;97557.81;4983599;28;20081;-70
2022/09/15 10:35:25;;;;;;;30.85;21.67;;;;;;;33.90;59.40;97549.47;4982122;28;20600;-69
2022/09/15 10:38:12;;;;;;;25.95;20.15;;;;;;;33.94;58.37;97560.63;4980469;28;20457;-69
2022/09/15 10:41:11;;;;;;;33.70;21.33;;;;;;;34.22;58.14;97550.66;4984398;28;20109;-70
2022/09/15 10:44:16;;;;;;;31.67;20.48;;;;;;;34.07;56.92;97539.53;4985545;28;20046;-69
2022/09/15 10:47:24;;;;;;;27.58;19.88;;;;;;;34.00;57.31;97533.97;4985145;28;20042;-69
2022/09/15 10:50:29;;;;;;;31.23;20.15;;;;;;;34.10;56.66;97537.94;4981630;28;20042;-70
2022/09/15 10:53:46;;;;;;;31.85;20.23;;;;;;;33.67;57.10;97537.94;5006270;28;20080;-70
2022/09/15 10:56:45;;;;;;;30.40;19.70;;;;;;;33.90;57.25;97540.34;5005454;28;20054;-72
2022/09/15 10:59:59;;;;;;;27.63;19.10;;;;;;;34.09;56.96;97534.34;5006804;28;20080;-73
2022/09/15 11:03:21;;;;;;;27.05;19.05;;;;;;;34.16;57.15;97533.56;5001050;28;20582;-70
2022/09/15 11:06:26;;;;;;;31.13;20.08;;;;;;;34.28;56.63;97524.00;5001927;28;20054;-72
2022/09/15 11:09:31;;;;;;;27.75;18.80;;;;;;;34.21;56.24;97526.81;5006754;28;20492;-70
2022/09/15 11:12:40;;;;;;;27.58;19.00;;;;;;;34.33;58.12;97526.38;4990586;28;20137;-70
2022/09/15 11:15:36;;;;;;;27.42;19.40;;;;;;;34.36;58.54;97516.41;5004037;28;20144;-71
2022/09/15 11:18:55;;;;;;;31.77;20.50;;;;;;;34.31;57.27;97517.63;5004053;28;20054;-72
2022/09/15 11:21:52;;;;;;;29.90;19.67;;;;;;;34.34;59.11;97508.47;5003326;28;20137;-71
2022/09/15 11:24:43;;;;;;;35.13;20.90;;;;;;;34.13;56.25;97512.06;5003098;28;20508;-71
2022/09/15 11:27:40;;;;;;;36.00;21.30;;;;;;;34.10;55.46;97518.44;5005400;28;20041;-72
2022/09/15 11:30:36;;;;;;;27.95;20.13;;;;;;;34.30;55.19;97505.69;5004569;28;20466;-71
2022/09/15 11:33:43;;;;;;;35.53;20.90;;;;;;;34.14;55.26;97508.09;5005385;28;20074;-73
2022/09/15 11:36:52;;;;;;;29.45;19.30;;;;;;;34.21;55.37;97498.97;5005032;28;20050;-71
2022/09/15 11:39:52;;;;;;;28.92;20.23;;;;;;;34.42;56.07;97503.69;5005060;28;20096;-70
2022/09/15 11:43:13;;;;;;;37.40;20.20;;;;;;;34.11;55.29;97509.69;5004435;28;20054;-73
2022/09/15 11:46:08;;;;;;;30.77;19.77;;;;;;;34.31;55.64;97509.28;5003793;28;20107;-76
2022/09/15 11:49:03;;;;;;;27.40;19.75;;;;;;;34.18;55.73;97508.91;5004204;28;20046;-73
2022/09/15 11:52:22;;;;;;;31.50;19.93;;;;;;;34.32;57.05;97497.75;5003261;28;20042;-70
2022/09/15 11:55:19;;;;;;;24.45;19.40;;;;;;;34.36;56.05;97492.16;5014119;28;20042;-67
2022/09/15 11:58:15;;;;;;;26.92;19.60;;;;;;;34.38;59.11;97486.97;5006054;28;20052;-67
2022/09/15 12:01:15;;;;;;;44.28;20.92;;;;;;;34.22;55.79;97486.63;5006505;28;20068;-70
2022/09/15 12:04:06;;;;;;;33.53;19.40;;;;;;;33.96;56.52;97491.41;4987971;28;20053;-68
2022/09/15 12:07:05;;;;;;;31.15;20.52;;;;;;;34.17;57.31;97487.84;5006614;28;20057;-68
2022/09/15 12:09:52;;;;;;;31.45;19.20;;;;;;;34.14;55.75;97489.38;4997435;28;20034;-67
2022/09/15 12:12:45;;;;;;;26.02;18.98;;;;;;;34.09;54.53;97489.81;5005816;28;20184;-68
2022/09/15 12:15:29;;;;;;;27.50;18.35;;;;;;;34.07;54.08;97494.16;5006146;28;20135;-67
2022/09/15 12:18:33;;;;;;;30.00;19.40;;;;;;;34.17;53.96;97485.03;4991926;28;20060;-68
2022/09/15 12:21:35;;;;;;;42.95;21.08;;;;;;;33.79;57.09;97479.13;5006651;28;20054;-68
2022/09/15 12:24:49;;;;;;;26.42;19.75;;;;;;;34.05;56.00;97485.44;4993863;28;20050;-69
2022/09/15 12:27:41;;;;;;;30.80;20.60;;;;;;;33.88;57.38;97484.25;4988044;28;20089;-68
2022/09/15 12:30:47;;;;;;;33.70;19.80;;;;;;;33.84;58.09;97486.25;4955085;28;20050;-68
2022/09/15 12:33:44;;;;;;;29.08;21.25;;;;;;;33.75;58.33;97481.09;4987904;28;20052;-67
2022/09/15 12:36:44;;;;;;;31.92;20.42;;;;;;;33.82;58.37;97485.84;5006180;28;20472;-67
2022/09/15 12:39:45;;;;;;;33.20;20.70;;;;;;;33.76;57.99;97487.47;5006998;28;20074;-69
2022/09/15 12:42:31;;;;;;;32.63;20.13;;;;;;;33.86;57.57;97487.47;4990482;28;20469;-68
2022/09/15 12:45:35;;;;;;;32.63;20.85;;;;;;;33.82;57.38;97485.84;5006230;28;20148;-69
2022/09/15 12:48:18;;;;;;;40.08;20.17;;;;;;;33.85;56.98;97491.41;5006559;28;20115;-69
2022/09/15 12:51:16;;;;;;;33.15;18.63;;;;;;;33.71;54.97;97481.09;5007784;28;20042;-69
2022/09/15 12:54:04;;;;;;;24.90;18.17;;;;;;;33.81;54.38;97479.50;5006395;28;20057;-69
2022/09/15 12:57:03;;;;;;;29.73;17.90;;;;;;;33.76;55.48;97473.53;5006294;28;20045;-69
2022/09/15 12:59:40;;;;;;;25.90;18.13;;;;;;;33.79;55.23;97479.13;5006697;28;20050;-68
2022/09/15 13:02:46;;;;;;;33.00;19.85;;;;;;;33.66;55.80;97480.72;5006516;28;20045;-71
2022/09/15 13:05:47;;;;;;;27.50;18.95;;;;;;;33.50;56.64;97478.31;4988969;28;20355;-69
2022/09/15 13:08:37;;;;;;;32.50;19.58;;;;;;;33.23;59.12;97488.97;4981397;28;20348;-68
2022/09/15 13:11:55;;;;;;;31.42;19.20;;;;;;;33.11;59.78;97484.59;4988973;28;20102;-69
2022/09/15 13:14:54;;;;;;;26.67;17.23;;;;;;;33.16;58.02;97478.66;4989347;28;20641;-68
2022/09/15 13:17:32;;;;;;;25.50;16.50;;;;;;;33.19;56.57;97482.63;4953522;28;20052;-68
2022/09/15 13:20:33;;;;;;;24.52;16.92;;;;;;;33.27;56.74;97479.47;4979856;28;20085;-67